Time;durP1;ratioP1;P1;durP2;ratioP2;P2;SDS_P1;SDS_P2;PMS_P1;PMS_P2;Temp;Humidity;BMP_temperature;BMP_pressure;BME280_temperature;BME280_humidity;BME280_pressure;Samples;Min_cycle;Max_cycle;Signal;HPM_P1;HPM_P2
2022/11/06 00:00:51;;;;;;;10.80;7.50;;;10.00;99.90;;;;;;7380693;19;19931;-57
2022/11/06 00:03:17;;;;;;;12.02;7.45;;;9.90;99.90;;;;;;7379053;19;20739;-57
2022/11/06 00:08:34;;;;;;;12.98;8.10;;;10.00;99.90;;;;;;7365534;19;20018;-49
2022/11/06 00:11:06;;;;;;;11.85;7.55;;;9.90;99.90;;;;;;7369823;19;20022;-51
2022/11/06 00:13:35;;;;;;;9.70;7.65;;;9.90;99.90;;;;;;7371826;19;20059;-57
2022/11/06 00:16:03;;;;;;;10.18;7.78;;;9.90;99.90;;;;;;7381268;19;20501;-57
2022/11/06 00:18:29;;;;;;;17.55;7.60;;;9.90;99.90;;;;;;7378231;19;20017;-57
2022/11/06 00:20:55;;;;;;;11.43;7.63;;;9.90;99.90;;;;;;7384723;19;20022;-57
2022/11/06 00:23:21;;;;;;;11.93;8.63;;;9.90;99.90;;;;;;7386081;19;20039;-57
2022/11/06 00:25:51;;;;;;;12.98;7.40;;;9.90;99.90;;;;;;7383902;19;20897;-57
2022/11/06 00:28:18;;;;;;;11.05;7.22;;;9.90;99.90;;;;;;7376355;19;20018;-50
2022/11/06 00:30:44;;;;;;;11.93;8.23;;;9.90;99.90;;;;;;7373631;19;20018;-51
2022/11/06 00:33:12;;;;;;;12.68;8.15;;;9.90;99.90;;;;;;7371802;19;20032;-57
2022/11/06 00:35:39;;;;;;;13.68;8.07;;;9.80;99.90;;;;;;7373685;19;20040;-57
2022/11/06 00:38:05;;;;;;;11.18;7.72;;;9.80;99.90;;;;;;7383622;19;20355;-57
2022/11/06 00:40:32;;;;;;;21.67;8.35;;;9.80;99.90;;;;;;7383316;19;20018;-57
2022/11/06 00:42:58;;;;;;;11.57;8.10;;;9.80;99.90;;;;;;7386446;19;20018;-57
2022/11/06 00:45:24;;;;;;;11.35;8.27;;;9.80;99.90;;;;;;7382023;19;20137;-50
2022/11/06 00:47:51;;;;;;;13.27;9.10;;;9.80;99.90;;;;;;7377119;19;20024;-51
2022/11/06 00:50:18;;;;;;;13.50;9.00;;;9.80;99.90;;;;;;7379576;19;20042;-51
2022/11/06 00:52:44;;;;;;;14.23;8.27;;;9.70;99.90;;;;;;7364399;19;20022;-49
2022/11/06 00:55:10;;;;;;;12.13;8.65;;;9.70;99.90;;;;;;7364072;19;20039;-51
2022/11/06 00:57:37;;;;;;;15.63;8.60;;;9.70;99.90;;;;;;7367574;19;20066;-47
2022/11/06 01:00:04;;;;;;;13.82;8.77;;;9.70;99.90;;;;;;7371996;19;20025;-49
2022/11/06 01:02:30;;;;;;;13.98;8.00;;;9.70;99.90;;;;;;7366179;19;20406;-46
2022/11/06 01:04:57;;;;;;;12.80;7.68;;;9.70;99.90;;;;;;7370867;19;20620;-50
2022/11/06 01:07:23;;;;;;;16.67;8.63;;;9.70;99.90;;;;;;7371249;19;20397;-49
2022/11/06 01:09:50;;;;;;;10.85;7.90;;;9.70;99.90;;;;;;7366315;19;20625;-52
2022/11/06 01:12:17;;;;;;;10.80;7.80;;;9.70;99.90;;;;;;7363082;19;20094;-49
2022/11/06 01:14:43;;;;;;;12.40;7.60;;;9.70;99.90;;;;;;7363885;19;20022;-52
2022/11/06 01:17:10;;;;;;;9.63;7.50;;;9.70;99.90;;;;;;7366753;19;20117;-50
2022/11/06 01:19:37;;;;;;;13.02;8.88;;;9.80;99.90;;;;;;7365506;19;20580;-58
2022/11/06 01:22:03;;;;;;;11.45;8.95;;;9.80;99.90;;;;;;7364257;19;20033;-51
2022/11/06 01:24:30;;;;;;;15.45;8.65;;;9.70;99.90;;;;;;7366121;19;20580;-53
2022/11/06 01:26:56;;;;;;;13.15;8.48;;;9.70;99.90;;;;;;7368484;19;20043;-51
2022/11/06 01:29:22;;;;;;;13.80;8.77;;;9.60;99.90;;;;;;7365090;19;20019;-49
2022/11/06 01:31:49;;;;;;;17.67;8.50;;;9.60;99.90;;;;;;7366744;19;20035;-52
2022/11/06 01:34:16;;;;;;;11.68;8.82;;;9.50;99.90;;;;;;7365908;19;20014;-51
2022/11/06 01:36:43;;;;;;;11.60;8.68;;;9.50;99.90;;;;;;7364367;19;20073;-50
2022/11/06 01:39:12;;;;;;;12.52;9.18;;;9.40;99.90;;;;;;7367301;19;20605;-49
2022/11/06 01:41:42;;;;;;;14.55;9.30;;;9.40;99.90;;;;;;7369634;19;20351;-58
2022/11/06 01:44:34;;;;;;;15.05;9.15;;;9.40;99.90;;;;;;7380831;19;20018;-51
2022/11/06 01:47:04;;;;;;;14.75;9.88;;;9.30;99.90;;;;;;7380415;19;20017;-54
2022/11/06 01:49:36;;;;;;;13.95;9.63;;;9.30;99.90;;;;;;7378463;19;20018;-58
2022/11/06 01:52:06;;;;;;;12.77;11.15;;;9.30;99.90;;;;;;7380406;19;20999;-57
2022/11/06 01:54:35;;;;;;;12.73;9.27;;;9.30;99.90;;;;;;7370037;19;20019;-58
2022/11/06 01:57:03;;;;;;;15.85;10.38;;;9.30;99.90;;;;;;7379895;19;20104;-58
2022/11/06 01:59:36;;;;;;;15.77;9.95;;;9.30;99.90;;;;;;7380218;19;20033;-58
2022/11/06 02:02:02;;;;;;;12.20;9.85;;;9.30;99.90;;;;;;7378722;19;20022;-50
2022/11/06 02:04:33;;;;;;;17.90;10.35;;;9.30;99.90;;;;;;7374081;19;20026;-57
2022/11/06 02:07:00;;;;;;;15.75;9.57;;;9.30;99.90;;;;;;7381151;19;20015;-53
2022/11/06 02:09:28;;;;;;;14.38;10.10;;;9.30;99.90;;;;;;7373622;19;20022;-58
2022/11/06 02:12:28;;;;;;;14.90;10.48;;;9.30;99.90;;;;;;7378184;19;20533;-58
2022/11/06 02:15:06;;;;;;;13.73;10.00;;;9.20;99.90;;;;;;7379126;19;20521;-58
2022/11/06 02:17:57;;;;;;;16.05;10.90;;;9.20;99.90;;;;;;7381015;19;20585;-58
2022/11/06 02:20:34;;;;;;;15.73;10.25;;;9.20;99.90;;;;;;7380653;19;20484;-57
2022/11/06 02:23:12;;;;;;;14.35;10.13;;;9.20;99.90;;;;;;7380339;19;20134;-57
2022/11/06 02:26:02;;;;;;;16.50;11.30;;;9.20;99.90;;;;;;7381191;19;20347;-58
2022/11/06 02:28:38;;;;;;;13.00;9.65;;;9.20;99.90;;;;;;7379965;19;20509;-58
2022/11/06 02:31:10;;;;;;;15.88;10.48;;;9.20;99.90;;;;;;7377449;19;20440;-58
2022/11/06 02:34:04;;;;;;;16.90;10.10;;;9.20;99.90;;;;;;7381279;19;20014;-58
2022/11/06 02:36:40;;;;;;;14.07;10.10;;;9.10;99.90;;;;;;7377932;19;20526;-58
2022/11/06 02:39:11;;;;;;;14.80;10.82;;;9.20;99.90;;;;;;7379937;19;20490;-58
2022/11/06 02:41:44;;;;;;;17.77;10.55;;;9.20;99.90;;;;;;7376299;19;20056;-58
2022/11/06 02:44:15;;;;;;;;;;;9.20;99.90;;;;;;7381742;19;20048;-58
2022/11/06 02:46:56;;;;;;;14.13;9.55;;;9.20;99.90;;;;;;7377783;19;20484;-58
2022/11/06 02:49:47;;;;;;;16.08;11.40;;;9.20;99.90;;;;;;7382117;19;20018;-58
2022/11/06 02:52:38;;;;;;;17.83;10.68;;;9.20;99.90;;;;;;7378196;19;20025;-58
2022/11/06 02:55:11;;;;;;;14.82;10.45;;;9.20;99.90;;;;;;7378761;19;20043;-58
2022/11/06 02:57:41;;;;;;;13.18;10.35;;;9.10;99.90;;;;;;7379154;19;20358;-58
2022/11/06 03:00:14;;;;;;;13.32;9.63;;;9.10;99.90;;;;;;7373837;19;20018;-58
2022/11/06 03:02:49;;;;;;;12.88;8.77;;;9.20;99.90;;;;;;7374037;19;20023;-58
2022/11/06 03:05:32;;;;;;;13.98;9.80;;;9.20;99.90;;;;;;7378374;19;20030;-58
2022/11/06 03:08:02;;;;;;;17.60;8.40;;;9.20;99.90;;;;;;7376603;19;20070;-58
2022/11/06 03:10:46;;;;;;;11.77;8.77;;;9.20;99.90;;;;;;7375761;19;20369;-57
2022/11/06 03:13:30;;;;;;;13.52;9.38;;;9.20;99.90;;;;;;7376505;19;20019;-57
2022/11/06 03:16:22;;;;;;;10.48;8.23;;;9.20;99.90;;;;;;7373576;19;20411;-58
2022/11/06 03:18:59;;;;;;;15.00;8.27;;;9.20;99.90;;;;;;7379637;19;20038;-58
2022/11/06 03:22:00;;;;;;;11.98;8.40;;;9.20;99.90;;;;;;7382878;19;20015;-58
2022/11/06 03:24:39;;;;;;;14.05;8.80;;;9.20;99.90;;;;;;7385841;19;20019;-58
2022/11/06 03:27:10;;;;;;;17.90;8.70;;;9.20;99.90;;;;;;7384929;19;20019;-58
2022/11/06 03:29:39;;;;;;;10.45;7.70;;;9.20;99.90;;;;;;7381757;19;20031;-57
2022/11/06 03:32:33;;;;;;;12.52;7.65;;;9.20;99.90;;;;;;7386224;19;20090;-58
2022/11/06 03:35:11;;;;;;;11.88;8.13;;;9.20;99.90;;;;;;7385383;19;20453;-58
2022/11/06 03:37:45;;;;;;;12.40;7.20;;;9.20;99.90;;;;;;7385118;19;20007;-58
2022/11/06 03:40:16;;;;;;;12.60;8.25;;;9.20;99.90;;;;;;7371446;19;20078;-50
2022/11/06 03:42:45;;;;;;;12.82;8.60;;;9.20;99.90;;;;;;7367369;19;20019;-47
2022/11/06 03:45:18;;;;;;;13.48;8.23;;;9.20;99.90;;;;;;7369887;19;20021;-51
2022/11/06 03:47:51;;;;;;;11.70;8.10;;;9.20;99.90;;;;;;7364793;19;20018;-51
2022/11/06 03:50:33;;;;;;;16.17;8.57;;;9.10;99.90;;;;;;7368548;19;20022;-50
2022/11/06 03:53:09;;;;;;;11.83;8.00;;;9.10;99.90;;;;;;7367128;19;20639;-50
2022/11/06 03:55:45;;;;;;;14.30;8.55;;;9.10;99.90;;;;;;7364388;19;20877;-50
2022/11/06 03:58:22;;;;;;;16.77;8.95;;;9.10;99.90;;;;;;7367504;19;20039;-50
2022/11/06 04:00:49;;;;;;;14.10;8.07;;;9.10;99.90;;;;;;7375928;19;20020;-51
2022/11/06 04:03:29;;;;;;;13.15;9.10;;;9.10;99.90;;;;;;7368177;19;20716;-51
2022/11/06 04:06:05;;;;;;;12.13;7.97;;;9.10;99.90;;;;;;7365483;19;20513;-49
2022/11/06 04:14:07;;;;;;;11.80;9.00;;;9.10;99.90;;;;;;7371299;19;20015;-50
2022/11/06 04:16:37;;;;;;;12.32;7.50;;;9.10;99.90;;;;;;7374391;19;20481;-50
2022/11/06 04:19:16;;;;;;;12.85;7.85;;;9.10;99.90;;;;;;7374438;19;20022;-51
2022/11/06 04:21:50;;;;;;;15.23;7.93;;;9.10;99.90;;;;;;7375791;19;20029;-52
2022/11/06 04:27:53;;;;;;;8.82;7.22;;;9.10;99.90;;;;;;7373783;19;20050;-51
2022/11/06 04:30:19;;;;;;;12.80;7.80;;;9.10;99.90;;;;;;7375901;19;20014;-52
2022/11/06 04:33:03;;;;;;;15.73;7.78;;;9.10;99.90;;;;;;7374521;19;20022;-51
2022/11/06 04:35:42;;;;;;;12.88;7.53;;;9.10;99.90;;;;;;7373513;19;20018;-52
2022/11/06 04:38:31;;;;;;;11.45;7.57;;;9.10;99.90;;;;;;7387644;19;20536;-57
2022/11/06 04:41:20;;;;;;;11.10;7.80;;;9.10;99.90;;;;;;7388064;19;20470;-58
2022/11/06 04:44:22;;;;;;;12.90;7.65;;;9.10;99.90;;;;;;7385387;19;20022;-58
2022/11/06 04:46:52;;;;;;;;;;;9.10;99.90;;;;;;7384850;19;20022;-57
2022/11/06 04:49:20;;;;;;;10.13;7.18;;;9.10;99.90;;;;;;7386850;19;19922;-57
2022/11/06 04:51:46;;;;;;;10.68;7.03;;;9.10;99.90;;;;;;7386757;19;20014;-58
2022/11/06 04:54:13;;;;;;;12.13;7.32;;;9.10;99.90;;;;;;7388541;19;20018;-57
2022/11/06 04:56:41;;;;;;;11.35;7.53;;;9.10;99.90;;;;;;7385772;19;20026;-58
2022/11/06 04:59:12;;;;;;;11.98;7.72;;;9.10;99.90;;;;;;7385204;19;20018;-58
2022/11/06 05:01:39;;;;;;;;;;;9.10;99.90;;;;;;7385625;19;20021;-58
2022/11/06 05:04:05;;;;;;;15.70;7.72;;;9.10;99.90;;;;;;7385350;19;20251;-58
2022/11/06 05:06:31;;;;;;;10.57;6.68;;;9.10;99.90;;;;;;7387678;19;20019;-58
2022/11/06 05:08:57;;;;;;;9.93;6.88;;;9.10;99.90;;;;;;7386674;19;20026;-57
2022/11/06 05:11:24;;;;;;;10.93;7.07;;;9.10;99.90;;;;;;7385256;19;20014;-58
2022/11/06 05:13:50;;;;;;;14.18;7.35;;;9.10;99.90;;;;;;7385281;19;20525;-58
2022/11/06 05:16:16;;;;;;;9.20;6.28;;;9.10;99.90;;;;;;7383970;19;20019;-58
2022/11/06 05:18:43;;;;;;;11.77;6.68;;;9.10;99.90;;;;;;7385309;19;20090;-58
2022/11/06 05:23:54;;;;;;;14.13;7.25;;;9.20;99.90;;;;;;7384573;19;20015;-58
2022/11/06 05:26:20;;;;;;;12.43;6.55;;;9.10;99.90;;;;;;7384780;19;20025;-58
2022/11/06 05:28:47;;;;;;;13.55;6.15;;;9.20;99.90;;;;;;7383325;19;20377;-58
2022/11/06 05:31:13;;;;;;;8.18;5.50;;;9.20;99.90;;;;;;7384692;19;20014;-58
2022/11/06 05:33:39;;;;;;;13.13;6.65;;;9.20;99.90;;;;;;7384369;19;20038;-58
2022/11/06 05:36:06;;;;;;;13.13;6.90;;;9.20;99.90;;;;;;7382415;19;20482;-58
2022/11/06 05:38:33;;;;;;;12.90;5.15;;;9.20;99.90;;;;;;7384871;19;20018;-57
2022/11/06 05:40:59;;;;;;;13.88;6.05;;;9.20;99.90;;;;;;7382433;19;20021;-57
2022/11/06 05:43:25;;;;;;;13.25;5.75;;;9.20;99.90;;;;;;7384518;19;20376;-57
2022/11/06 05:45:52;;;;;;;11.98;4.93;;;9.30;99.90;;;;;;7386919;19;20098;-58
2022/11/06 05:48:18;;;;;;;7.75;4.38;;;9.30;99.90;;;;;;7382139;19;20078;-57
2022/11/06 05:50:46;;;;;;;12.25;4.78;;;9.30;99.90;;;;;;7384594;19;20026;-58
2022/11/06 05:53:15;;;;;;;8.02;4.40;;;9.40;99.90;;;;;;7384245;19;20490;-57
2022/11/06 05:55:43;;;;;;;9.25;4.38;;;9.40;99.90;;;;;;7387671;19;20082;-57
2022/11/06 05:58:10;;;;;;;8.90;5.03;;;9.40;99.90;;;;;;7385917;19;20018;-59
2022/11/06 06:00:36;;;;;;;7.03;4.57;;;9.40;99.90;;;;;;7384832;19;20814;-58
2022/11/06 06:03:02;;;;;;;5.78;3.70;;;9.40;99.90;;;;;;7385598;19;20399;-58
2022/11/06 06:05:28;;;;;;;8.13;4.30;;;9.40;99.90;;;;;;7389141;19;20465;-58
2022/11/06 06:07:55;;;;;;;8.82;4.05;;;9.40;99.90;;;;;;7377131;19;20092;-48
2022/11/06 06:10:21;;;;;;;15.23;4.38;;;9.40;99.90;;;;;;7370192;19;20482;-50
2022/11/06 06:12:50;;;;;;;9.13;4.95;;;9.50;99.90;;;;;;7381234;19;20111;-58
2022/11/06 06:15:17;;;;;;;9.77;4.00;;;9.50;99.90;;;;;;7377954;19;20035;-49
2022/11/06 06:17:44;;;;;;;8.52;4.45;;;9.50;99.90;;;;;;7371977;19;20038;-51
2022/11/06 06:20:11;;;;;;;8.10;4.28;;;9.50;99.90;;;;;;7372353;19;20474;-53
2022/11/06 06:22:37;;;;;;;11.68;4.15;;;9.50;99.90;;;;;;7370617;19;20038;-52
2022/11/06 06:25:04;;;;;;;11.18;4.47;;;9.50;99.90;;;;;;7374462;19;20046;-49
2022/11/06 06:27:30;;;;;;;9.23;4.25;;;9.60;99.90;;;;;;7374182;19;21448;-52
2022/11/06 06:29:56;;;;;;;12.02;4.72;;;9.60;99.90;;;;;;7367333;19;20853;-48
2022/11/06 06:32:23;;;;;;;8.20;3.60;;;9.60;99.90;;;;;;7367767;19;20022;-48
2022/11/06 06:34:49;;;;;;;8.68;4.10;;;9.60;99.90;;;;;;7372916;19;20445;-51
2022/11/06 06:37:15;;;;;;;8.60;3.70;;;9.60;99.90;;;;;;7371859;19;20411;-52
2022/11/06 06:39:42;;;;;;;8.63;4.20;;;9.60;99.90;;;;;;7367358;19;20032;-52
2022/11/06 06:42:08;;;;;;;7.35;4.25;;;9.70;99.90;;;;;;7368875;19;20018;-56
2022/11/06 06:44:34;;;;;;;8.10;4.47;;;9.70;99.90;;;;;;7368708;19;20056;-49
2022/11/06 06:47:01;;;;;;;11.30;4.60;;;9.70;99.90;;;;;;7368829;19;20105;-49
2022/11/06 06:49:27;;;;;;;7.63;4.07;;;9.70;99.90;;;;;;7371488;19;20019;-48
2022/11/06 06:51:54;;;;;;;8.90;3.45;;;9.70;99.90;;;;;;7371451;19;20026;-49
2022/11/06 06:54:20;;;;;;;8.02;3.25;;;9.70;99.90;;;;;;7374514;19;20014;-49
2022/11/06 06:56:47;;;;;;;9.75;5.20;;;9.80;99.90;;;;;;7380195;19;20351;-50
2022/11/06 06:59:13;;;;;;;12.10;3.20;;;9.80;99.90;;;;;;7381297;19;20030;-50
2022/11/06 07:01:40;;;;;;;7.72;3.55;;;9.80;99.90;;;;;;7378182;19;20026;-52
2022/11/06 07:04:07;;;;;;;9.27;3.80;;;9.80;99.90;;;;;;7378781;19;20486;-51
2022/11/06 07:06:33;;;;;;;10.23;3.92;;;9.80;99.90;;;;;;7382143;19;20500;-52
2022/11/06 07:09:00;;;;;;;8.35;3.70;;;9.80;99.90;;;;;;7377382;19;20025;-52
2022/11/06 07:11:26;;;;;;;10.20;3.92;;;9.90;99.90;;;;;;7381292;19;20683;-48
2022/11/06 07:13:52;;;;;;;11.68;3.25;;;9.90;99.90;;;;;;7380804;19;20474;-48
2022/11/06 07:16:20;;;;;;;8.95;3.60;;;9.90;99.90;;;;;;7374634;19;20022;-50
2022/11/06 07:18:46;;;;;;;5.82;3.22;;;9.90;99.90;;;;;;7379424;19;20101;-47
2022/11/06 07:21:13;;;;;;;10.13;4.32;;;9.90;99.90;;;;;;7375424;19;20202;-50
2022/11/06 07:23:39;;;;;;;9.88;3.83;;;10.00;99.90;;;;;;7386639;19;20074;-54
2022/11/06 07:26:06;;;;;;;6.80;3.13;;;10.00;99.90;;;;;;7382585;19;20034;-55
2022/11/06 07:28:32;;;;;;;10.23;2.95;;;10.00;99.90;;;;;;7379801;19;20022;-51
2022/11/06 07:31:00;;;;;;;6.60;3.22;;;10.00;99.90;;;;;;7381016;19;20022;-56
2022/11/06 07:33:27;;;;;;;7.53;3.67;;;10.00;99.90;;;;;;7385185;19;20427;-56
2022/11/06 07:35:54;;;;;;;7.70;2.50;;;10.10;99.90;;;;;;7376380;19;20489;-56
2022/11/06 07:38:20;;;;;;;8.75;3.67;;;10.10;99.90;;;;;;7381787;19;20504;-56
2022/11/06 07:40:47;;;;;;;6.35;2.75;;;10.10;99.90;;;;;;7382982;19;20430;-56
2022/11/06 07:43:14;;;;;;;8.93;2.83;;;10.20;99.90;;;;;;7382323;19;20015;-56
2022/11/06 07:45:40;;;;;;;10.82;3.05;;;10.20;99.90;;;;;;7377742;19;20597;-56
2022/11/06 07:48:06;;;;;;;4.95;2.30;;;10.20;99.90;;;;;;7380938;19;20512;-57
2022/11/06 07:50:33;;;;;;;8.55;2.50;;;10.20;99.90;;;;;;7380935;19;20102;-56
2022/11/06 07:53:02;;;;;;;7.95;2.78;;;10.20;99.90;;;;;;7378838;19;20010;-56
2022/11/06 07:55:28;;;;;;;5.05;2.65;;;10.20;99.90;;;;;;7380257;19;20033;-56
2022/11/06 07:57:54;;;;;;;5.53;2.90;;;10.20;99.90;;;;;;7380919;19;20050;-56
2022/11/06 08:00:20;;;;;;;9.02;2.88;;;10.20;99.90;;;;;;7382741;19;20022;-56
2022/11/06 08:02:53;;;;;;;7.15;2.70;;;10.20;99.90;;;;;;7379302;19;20110;-56
2022/11/06 08:05:19;;;;;;;10.05;3.60;;;10.20;99.90;;;;;;7382262;19;20043;-57
2022/11/06 08:07:46;;;;;;;8.98;3.67;;;10.20;99.90;;;;;;7382761;19;20015;-57
2022/11/06 08:10:12;;;;;;;4.05;2.45;;;10.20;99.90;;;;;;7380432;19;20026;-56
2022/11/06 08:12:39;;;;;;;6.75;2.40;;;10.20;99.90;;;;;;7380003;19;20042;-56
2022/11/06 08:15:05;;;;;;;8.30;3.20;;;10.20;99.90;;;;;;7376540;19;20698;-56
2022/11/06 08:17:32;;;;;;;6.45;2.50;;;10.20;99.90;;;;;;7376768;19;20470;-56
2022/11/06 08:19:58;;;;;;;7.55;3.33;;;10.30;99.90;;;;;;7377395;19;20014;-51
2022/11/06 08:22:24;;;;;;;7.93;2.78;;;10.30;99.90;;;;;;7377165;19;21512;-56
2022/11/06 08:24:50;;;;;;;5.15;2.17;;;10.30;99.90;;;;;;7379415;19;20015;-56
2022/11/06 08:27:17;;;;;;;9.57;2.33;;;10.40;99.90;;;;;;7376920;19;20457;-56
2022/11/06 08:29:43;;;;;;;7.30;2.55;;;10.30;99.90;;;;;;7372182;19;20019;-56
2022/11/06 08:32:09;;;;;;;4.68;2.38;;;10.40;99.90;;;;;;7374274;19;20029;-56
2022/11/06 08:34:35;;;;;;;6.93;2.50;;;10.30;99.90;;;;;;7376358;19;20025;-56
2022/11/06 08:37:01;;;;;;;10.50;3.30;;;10.30;99.90;;;;;;7378353;19;20503;-56
2022/11/06 08:39:28;;;;;;;4.55;2.70;;;10.30;99.90;;;;;;7380764;19;20014;-56
2022/11/06 08:41:55;;;;;;;6.05;2.42;;;10.30;99.90;;;;;;7374122;19;20489;-57
2022/11/06 08:44:23;;;;;;;7.65;3.08;;;10.30;99.90;;;;;;7376152;19;20018;-56
2022/11/06 08:46:49;;;;;;;5.40;3.25;;;10.30;99.90;;;;;;7373537;19;20042;-56
2022/11/06 08:49:15;;;;;;;8.05;2.70;;;10.30;99.90;;;;;;7376200;19;20587;-56
2022/11/06 08:51:42;;;;;;;6.15;3.08;;;10.30;99.90;;;;;;7375974;19;20019;-56
2022/11/06 08:54:09;;;;;;;5.57;2.88;;;10.20;99.90;;;;;;7374100;19;20014;-56
2022/11/06 08:56:36;;;;;;;8.63;3.03;;;10.30;99.90;;;;;;7369845;19;20018;-51
2022/11/06 08:59:02;;;;;;;6.47;2.88;;;10.30;99.90;;;;;;7376585;19;20482;-56
2022/11/06 09:01:29;;;;;;;5.10;2.65;;;10.40;99.90;;;;;;7374708;19;20042;-56
2022/11/06 09:03:56;;;;;;;3.88;2.45;;;10.60;99.90;;;;;;7371444;19;20014;-56
2022/11/06 09:06:22;;;;;;;8.50;3.00;;;10.70;99.90;;;;;;7373741;19;20608;-56
2022/11/06 09:08:48;;;;;;;6.78;3.00;;;10.90;99.90;;;;;;7373903;19;20014;-56
2022/11/06 09:11:15;;;;;;;7.05;2.58;;;11.10;99.90;;;;;;7371713;19;20537;-56
2022/11/06 09:13:41;;;;;;;8.80;2.33;;;11.30;99.90;;;;;;7372681;19;20497;-56
2022/11/06 09:16:07;;;;;;;7.68;2.20;;;11.40;99.90;;;;;;7369937;19;20018;-56
2022/11/06 09:18:34;;;;;;;5.43;2.00;;;11.60;99.90;;;;;;7375742;19;20482;-56
2022/11/06 09:21:00;;;;;;;6.20;2.40;;;11.80;99.90;;;;;;7372100;19;20014;-56
2022/11/06 09:23:26;;;;;;;8.02;2.90;;;11.90;99.90;;;;;;7374757;19;20054;-56
2022/11/06 09:25:52;;;;;;;9.25;2.47;;;12.10;99.90;;;;;;7370788;19;20029;-51
2022/11/06 09:28:19;;;;;;;6.43;1.90;;;12.20;99.90;;;;;;7376908;19;20753;-51
2022/11/06 09:30:45;;;;;;;6.70;2.42;;;12.20;99.90;;;;;;7374088;19;20378;-56
2022/11/06 09:33:12;;;;;;;5.10;2.00;;;12.30;99.90;;;;;;7374129;19;20486;-56
2022/11/06 09:35:38;;;;;;;8.60;2.92;;;12.20;99.90;;;;;;7372425;19;20023;-49
2022/11/06 09:38:06;;;;;;;5.95;2.17;;;12.20;99.90;;;;;;7371881;19;20014;-49
2022/11/06 09:40:40;;;;;;;6.57;1.80;;;12.40;99.90;;;;;;7377928;19;20018;-48
2022/11/06 09:43:38;;;;;;;5.95;3.17;;;12.60;99.90;;;;;;7372230;19;20025;-50
2022/11/06 09:46:24;;;;;;;7.90;2.15;;;12.70;99.90;;;;;;7374483;19;20015;-51
2022/11/06 09:49:32;;;;;;;7.35;2.00;;;13.00;99.90;;;;;;7375916;19;20018;-56
2022/11/06 09:52:24;;;;;;;7.80;2.40;;;13.10;99.90;;;;;;7371536;19;20127;-56
2022/11/06 09:55:01;;;;;;;4.50;2.00;;;12.80;99.90;;;;;;7370665;19;20014;-56
2022/11/06 09:58:04;;;;;;;8.23;2.25;;;12.60;99.90;;;;;;7373393;19;20596;-56
2022/11/06 10:00:30;;;;;;;3.50;1.70;;;12.50;99.90;;;;;;7374229;19;20392;-55
2022/11/06 10:03:04;;;;;;;9.57;3.08;;;12.40;99.90;;;;;;7372987;19;20525;-55
2022/11/06 10:05:33;;;;;;;5.55;2.00;;;12.30;99.90;;;;;;7377112;19;20386;-56
2022/11/06 10:08:04;;;;;;;6.10;2.00;;;12.40;99.90;;;;;;7370772;19;20039;-56
2022/11/06 10:10:40;;;;;;;4.85;1.90;;;12.50;99.90;;;;;;7374692;19;20017;-57
2022/11/06 10:13:38;;;;;;;6.00;1.95;;;12.50;99.90;;;;;;7370742;19;20035;-57
2022/11/06 10:16:32;;;;;;;6.75;2.10;;;12.30;99.90;;;;;;7369453;19;20039;-56
2022/11/06 10:19:38;;;;;;;5.95;2.15;;;12.30;99.90;;;;;;7375062;19;20048;-57
2022/11/06 10:22:10;;;;;;;4.90;1.80;;;12.20;99.90;;;;;;7372544;19;20338;-57
2022/11/06 10:24:45;;;;;;;6.75;1.92;;;12.10;99.90;;;;;;7373022;19;20019;-57
2022/11/06 10:27:18;;;;;;;5.60;1.90;;;12.10;99.90;;;;;;7372170;19;20087;-53
2022/11/06 10:30:07;;;;;;;5.97;1.70;;;12.00;99.90;;;;;;7369721;19;20107;-50
2022/11/06 10:32:55;;;;;;;5.10;1.77;;;11.90;99.90;;;;;;7371395;19;20760;-50
2022/11/06 10:35:37;;;;;;;9.85;2.45;;;11.70;99.90;;;;;;7370651;19;20025;-55
2022/11/06 10:38:06;;;;;;;6.80;1.98;;;11.50;99.90;;;;;;7362235;19;20022;-51
2022/11/06 10:40:34;;;;;;;5.85;2.40;;;11.50;99.90;;;;;;7371221;19;20018;-52
2022/11/06 10:43:28;;;;;;;8.45;2.80;;;11.40;99.90;;;;;;7369402;19;20018;-53
2022/11/06 10:46:36;;;;;;;7.38;3.08;;;11.50;99.90;;;;;;7371295;19;20014;-55
2022/11/06 10:49:12;;;;;;;6.68;3.60;;;11.50;99.90;;;;;;7363315;19;20383;-53
2022/11/06 10:52:14;;;;;;;7.05;2.72;;;11.40;99.90;;;;;;7371031;19;20578;-53
2022/11/06 10:54:49;;;;;;;9.82;3.78;;;11.50;99.90;;;;;;7375120;19;20021;-52
2022/11/06 10:57:41;;;;;;;6.88;3.75;;;11.50;99.90;;;;;;7366112;19;20019;-50
2022/11/06 11:00:14;;;;;;;7.25;2.72;;;11.70;99.90;;;;;;7359531;19;20086;-51
2022/11/06 11:02:59;;;;;;;4.85;2.65;;;11.80;99.90;;;;;;7365048;19;20015;-52
2022/11/06 11:05:31;;;;;;;11.27;2.85;;;11.90;99.90;;;;;;7370895;19;20015;-53
2022/11/06 11:07:57;;;;;;;6.18;2.70;;;12.10;99.90;;;;;;7371298;19;20486;-49
2022/11/06 11:10:35;;;;;;;9.50;2.75;;;12.30;99.90;;;;;;7362021;19;20454;-49
2022/11/06 11:13:05;;;;;;;6.30;1.70;;;12.80;99.90;;;;;;7367408;19;20074;-50
2022/11/06 11:15:38;;;;;;;6.38;1.83;;;13.10;99.90;;;;;;7368809;19;20025;-50
2022/11/06 11:18:10;;;;;;;29.80;21.38;;;13.10;99.90;;;;;;7365750;19;20466;-49
2022/11/06 11:20:39;;;;;;;6.50;2.25;;;13.00;99.90;;;;;;7368283;19;20023;-51
2022/11/06 11:23:19;;;;;;;8.85;2.85;;;13.00;99.90;;;;;;7368882;19;20014;-48
2022/11/06 11:25:51;;;;;;;5.78;1.83;;;13.00;99.90;;;;;;7370991;19;20081;-50
2022/11/06 11:28:34;;;;;;;7.95;2.10;;;13.00;99.90;;;;;;7370765;19;20031;-48
2022/11/06 11:31:15;;;;;;;4.82;1.85;;;12.90;99.90;;;;;;7367425;19;20026;-48
2022/11/06 11:33:51;;;;;;;5.82;2.30;;;12.90;99.90;;;;;;7367066;19;20029;-47
2022/11/06 11:36:18;;;;;;;5.60;2.30;;;12.90;99.90;;;;;;7369222;19;20478;-50
2022/11/06 11:38:48;;;;;;;6.40;1.80;;;12.90;99.90;;;;;;7371235;19;20018;-52
2022/11/06 11:41:22;;;;;;;6.90;1.92;;;13.00;99.90;;;;;;7375426;19;20572;-48
2022/11/06 11:44:12;;;;;;;5.07;1.95;;;13.10;99.90;;;;;;7374547;19;20014;-48
2022/11/06 11:46:51;;;;;;;6.47;2.10;;;13.10;99.90;;;;;;7376610;19;20010;-48
2022/11/06 11:49:27;;;;;;;6.47;2.75;;;13.20;99.90;;;;;;7376364;19;20026;-49
2022/11/06 11:51:55;;;;;;;4.07;1.60;;;13.10;99.90;;;;;;7378993;19;20018;-47
2022/11/06 11:54:27;;;;;;;7.30;1.52;;;13.10;99.90;;;;;;7373499;19;20021;-51
2022/11/06 11:56:53;;;;;;;5.72;1.23;;;13.00;99.90;;;;;;7370495;19;20030;-50
2022/11/06 11:59:24;;;;;;;5.65;1.67;;;13.00;99.90;;;;;;7375392;19;20031;-48
2022/11/06 12:01:52;;;;;;;5.80;2.13;;;13.00;99.90;;;;;;7373816;19;20032;-47
2022/11/06 12:04:25;;;;;;;3.20;1.52;;;13.00;99.90;;;;;;7375961;19;20023;-49
2022/11/06 12:07:04;;;;;;;5.90;1.52;;;13.10;99.90;;;;;;7372398;19;20038;-49
2022/11/06 12:09:49;;;;;;;5.25;1.75;;;13.10;99.90;;;;;;7378977;19;20018;-49
2022/11/06 12:12:27;;;;;;;6.65;1.65;;;13.10;99.90;;;;;;7377289;19;20019;-47
2022/11/06 12:15:17;;;;;;;7.03;2.25;;;13.10;99.90;;;;;;7375822;19;20086;-51
2022/11/06 12:17:46;;;;;;;4.70;1.33;;;13.00;99.90;;;;;;7367695;19;20018;-49
2022/11/06 12:20:18;;;;;;;5.80;2.33;;;13.00;99.90;;;;;;7370478;19;20011;-48
2022/11/06 12:22:46;;;;;;;6.30;1.80;;;13.00;99.90;;;;;;7372790;19;20035;-51
2022/11/06 12:25:17;;;;;;;4.18;1.85;;;12.90;99.90;;;;;;7373119;19;20074;-50
2022/11/06 12:27:46;;;;;;;3.53;1.55;;;13.00;99.90;;;;;;7369644;19;20059;-49
2022/11/06 12:30:16;;;;;;;4.72;1.60;;;13.00;99.90;;;;;;7374803;19;20671;-48
2022/11/06 12:33:08;;;;;;;6.47;1.90;;;12.90;99.90;;;;;;7367696;19;20525;-49
2022/11/06 12:35:43;;;;;;;;;;;13.00;99.90;;;;;;7370160;19;20018;-47
2022/11/06 12:38:29;;;;;;;6.82;3.05;;;12.90;99.90;;;;;;7371085;19;20331;-50
2022/11/06 12:41:10;;;;;;;8.52;2.33;;;12.90;99.90;;;;;;7368657;19;20023;-49
2022/11/06 12:43:42;;;;;;;7.45;2.03;;;12.80;99.90;;;;;;7369164;19;20024;-50
2022/11/06 12:46:50;;;;;;;5.50;1.92;;;12.80;99.90;;;;;;7372694;19;20058;-47
2022/11/06 12:49:25;;;;;;;6.00;2.00;;;12.80;99.90;;;;;;7371308;19;20830;-49
2022/11/06 12:51:52;;;;;;;6.18;1.85;;;12.80;99.90;;;;;;7373045;19;20486;-50
2022/11/06 12:54:21;;;;;;;4.63;1.63;;;12.70;99.90;;;;;;7372160;19;20512;-48
2022/11/06 12:57:17;;;;;;;6.15;1.83;;;12.70;99.90;;;;;;7370237;19;20220;-50
2022/11/06 13:00:05;;;;;;;9.75;5.35;;;12.60;99.90;;;;;;7370337;19;21660;-49
2022/11/06 13:02:31;;;;;;;3.92;1.48;;;12.60;99.90;;;;;;7371024;19;20090;-52
2022/11/06 13:05:18;;;;;;;7.35;3.70;;;12.50;99.90;;;;;;7371641;19;20021;-51
2022/11/06 13:08:00;;;;;;;5.95;1.80;;;12.50;99.90;;;;;;7370911;19;20019;-48
2022/11/06 13:10:45;;;;;;;4.55;1.67;;;12.40;99.90;;;;;;7368948;19;20060;-49
2022/11/06 13:13:23;;;;;;;3.38;2.08;;;12.40;99.90;;;;;;7372135;19;20250;-47
2022/11/06 13:16:34;;;;;;;4.93;2.03;;;12.40;99.90;;;;;;7370158;19;20003;-48
2022/11/06 13:19:11;;;;;;;4.30;1.40;;;12.40;99.90;;;;;;7364087;19;20656;-50
2022/11/06 13:21:49;;;;;;;5.38;2.03;;;12.40;99.90;;;;;;7372652;19;20018;-50
2022/11/06 13:24:25;;;;;;;3.67;1.45;;;12.40;99.90;;;;;;7374141;19;20113;-50
2022/11/06 13:27:33;;;;;;;5.93;1.42;;;12.40;99.90;;;;;;7376161;19;20031;-49
2022/11/06 13:30:12;;;;;;;4.05;1.65;;;12.40;99.90;;;;;;7369650;19;20133;-49